createdAt,value
2018-07-09T00:00:19.637Z,65.30
2018-07-09T00:02:49.289Z,66.00
2018-07-09T00:05:19.293Z,65.60
2018-07-09T00:07:48.883Z,65.60
2018-07-09T00:11:22.864Z,66.20
2018-07-09T00:14:01.656Z,66.80
2018-07-09T00:16:31.567Z,66.70
2018-07-09T00:19:01.258Z,66.80
2018-07-09T00:21:30.983Z,66.70
2018-07-09T00:24:07.322Z,66.90
2018-07-09T00:26:36.968Z,67.30
2018-07-09T00:29:06.806Z,66.90
2018-07-09T00:31:48.441Z,67.20
2018-07-09T00:34:23.992Z,67.50
2018-07-09T00:36:59.325Z,67.80
2018-07-09T00:42:06.741Z,67.90
2018-07-09T00:44:36.457Z,67.60
2018-07-09T00:47:06.017Z,68.00
2018-07-09T00:49:36.104Z,68.70
2018-07-09T00:52:05.771Z,68.70
2018-07-09T00:54:48.994Z,69.00
2018-07-09T00:57:19.010Z,69.10
2018-07-09T00:59:48.887Z,69.40
2018-07-09T01:02:18.666Z,69.50
2018-07-09T01:04:53.996Z,69.40
2018-07-09T01:07:27.952Z,69.80
2018-07-09T01:10:05.348Z,69.70
2018-07-09T01:12:46.215Z,69.40
2018-07-09T01:15:30.571Z,69.50
2018-07-09T01:18:06.046Z,70.30
2018-07-09T01:20:42.447Z,70.40
2018-07-09T01:23:17.175Z,70.20
2018-07-09T01:25:46.870Z,70.50
2018-07-09T01:28:25.475Z,70.40
2018-07-09T01:30:54.949Z,70.90
2018-07-09T01:33:25.965Z,71.00
2018-07-09T01:35:55.515Z,70.60
2018-07-09T01:38:29.598Z,70.90
2018-07-09T01:40:59.188Z,71.50
2018-07-09T01:43:36.700Z,71.20
2018-07-09T01:46:11.953Z,71.30
2018-07-09T01:48:51.161Z,71.80
2018-07-09T01:51:29.433Z,71.70
2018-07-09T01:54:11.923Z,72.30
2018-07-09T01:56:49.790Z,72.00
2018-07-09T01:59:19.813Z,71.80
2018-07-09T02:01:54.059Z,72.30
2018-07-09T02:04:35.384Z,71.90
2018-07-09T02:07:10.992Z,72.30
2018-07-09T02:09:45.756Z,72.70
2018-07-09T02:12:19.703Z,72.80
2018-07-09T02:14:58.442Z,72.60
2018-07-09T02:17:28.503Z,73.00
2018-07-09T02:20:18.130Z,73.30
2018-07-09T02:23:07.968Z,73.50
2018-07-09T02:25:43.904Z,73.60
2018-07-09T02:28:18.228Z,74.40
2018-07-09T02:30:47.749Z,73.50
2018-07-09T02:33:17.351Z,74.10
2018-07-09T02:35:46.965Z,74.30
2018-07-09T02:38:16.356Z,74.20
2018-07-09T02:40:45.865Z,74.60
2018-07-09T02:43:26.016Z,74.70
2018-07-09T02:45:55.931Z,74.80
2018-07-09T02:48:25.906Z,74.90
2018-07-09T02:50:57.060Z,74.70
2018-07-09T02:53:27.091Z,74.80
2018-07-09T02:56:03.621Z,75.30
2018-07-09T02:58:38.987Z,75.20
2018-07-09T03:01:18.584Z,75.50
2018-07-09T03:03:54.891Z,75.30
2018-07-09T03:06:30.006Z,75.30
2018-07-09T03:08:59.751Z,75.20
2018-07-09T03:11:29.317Z,75.20
2018-07-09T03:13:58.739Z,75.80
2018-07-09T03:16:28.528Z,75.70
2018-07-09T03:18:58.043Z,75.60
2018-07-09T03:21:27.501Z,76.10
2018-07-09T03:24:03.906Z,76.30
2018-07-09T03:26:34.099Z,77.10
2018-07-09T03:29:09.333Z,76.60
2018-07-09T03:31:39.387Z,76.70
2018-07-09T03:34:09.073Z,77.00
2018-07-09T03:36:38.621Z,77.00
2018-07-09T03:39:08.495Z,77.10
2018-07-09T03:41:37.987Z,77.40
2018-07-09T03:44:07.625Z,77.50
2018-07-09T03:46:37.665Z,77.40
2018-07-09T03:49:07.252Z,77.00
2018-07-09T03:51:43.535Z,77.40
2018-07-09T03:54:13.386Z,77.30
2018-07-09T03:56:48.546Z,77.40
2018-07-09T03:59:24.926Z,77.50
2018-07-09T04:02:00.043Z,77.20
2018-07-09T04:04:29.800Z,77.70
2018-07-09T04:07:05.371Z,77.50
2018-07-09T04:09:40.419Z,77.70
2018-07-09T04:12:11.449Z,77.60
2018-07-09T04:14:46.129Z,77.80
2018-07-09T04:19:53.828Z,78.30
2018-07-09T04:22:23.699Z,78.40
2018-07-09T04:24:53.256Z,78.20
2018-07-09T04:27:23.078Z,78.30
2018-07-09T04:29:56.555Z,78.60
2018-07-09T04:32:26.109Z,78.70
2018-07-09T04:34:59.987Z,78.70
2018-07-09T04:37:29.524Z,78.90
2018-07-09T04:39:59.672Z,79.00
2018-07-09T04:42:29.455Z,79.20
2018-07-09T04:44:58.943Z,78.80
2018-07-09T04:47:37.619Z,79.10
2018-07-09T04:50:12.230Z,79.10
2018-07-09T04:52:47.163Z,78.90
2018-07-09T04:55:23.311Z,79.00
2018-07-09T04:57:59.455Z,79.20
2018-07-09T05:00:34.216Z,79.00
2018-07-09T05:03:04.246Z,78.70
2018-07-09T05:05:33.791Z,78.40
2018-07-09T05:08:10.898Z,78.30
2018-07-09T05:10:40.944Z,77.90
2018-07-09T05:13:10.679Z,78.00
2018-07-09T05:15:47.469Z,77.90
2018-07-09T05:18:17.616Z,78.20
2018-07-09T05:20:47.396Z,78.20
2018-07-09T05:23:17.610Z,78.20
2018-07-09T05:25:58.096Z,78.10
2018-07-09T05:28:33.853Z,78.00
2018-07-09T05:31:03.455Z,77.80
2018-07-09T05:33:33.273Z,77.80
2018-07-09T05:36:02.947Z,77.50
2018-07-09T05:41:11.507Z,76.90
2018-07-09T05:43:42.187Z,77.50
2018-07-09T05:46:12.214Z,76.30
2018-07-09T05:48:43.017Z,76.40
2018-07-09T05:51:12.708Z,76.50
2018-07-09T05:53:42.619Z,76.20
2018-07-09T05:56:12.451Z,76.10
2018-07-09T06:01:32.056Z,74.90
2018-07-09T06:04:10.986Z,74.30
2018-07-09T06:06:41.711Z,74.40
2018-07-09T06:09:27.379Z,73.70
2018-07-09T06:12:01.750Z,74.00
2018-07-09T06:14:31.439Z,74.40
2018-07-09T06:17:01.729Z,74.30
2018-07-09T06:19:41.242Z,74.20
2018-07-09T06:22:11.138Z,72.80
2018-07-09T06:24:41.293Z,72.10
2018-07-09T06:27:16.600Z,71.20
2018-07-09T06:29:48.939Z,71.30
2018-07-09T06:32:25.779Z,71.00
2018-07-09T06:34:55.835Z,71.00
2018-07-09T06:37:25.513Z,70.40
2018-07-09T06:39:55.016Z,70.50
2018-07-09T06:42:31.666Z,70.50
2018-07-09T06:45:01.478Z,70.40
2018-07-09T06:47:31.037Z,70.10
2018-07-09T06:50:08.027Z,70.00
2018-07-09T06:52:38.160Z,70.00
2018-07-09T06:55:09.662Z,69.80
2018-07-09T06:57:39.365Z,69.10
2018-07-09T07:00:13.999Z,69.10
2018-07-09T07:02:44.461Z,69.10
2018-07-09T07:05:19.465Z,68.30
2018-07-09T07:07:51.423Z,68.40
2018-07-09T07:10:21.699Z,67.70
2018-07-09T07:12:51.548Z,67.60
2018-07-09T07:15:21.297Z,67.10
2018-07-09T07:17:57.336Z,67.00
2018-07-09T07:20:27.022Z,63.70
2018-07-09T07:22:57.269Z,62.80
2018-07-09T07:25:27.259Z,62.60
2018-07-09T07:28:04.154Z,61.70
2018-07-09T07:30:36.165Z,62.70
2018-07-09T07:33:06.327Z,63.30
2018-07-09T07:35:37.457Z,62.30
2018-07-09T07:38:16.348Z,62.30
2018-07-09T07:40:50.468Z,62.00
2018-07-09T07:43:26.428Z,62.30
2018-07-09T07:45:56.392Z,62.30
2018-07-09T07:48:32.789Z,62.00
2018-07-09T07:51:02.762Z,62.90
2018-07-09T07:53:32.664Z,63.10
2018-07-09T07:56:14.268Z,63.30
2018-07-09T07:58:44.600Z,62.90
2018-07-09T08:01:14.663Z,62.40
2018-07-09T08:03:49.035Z,62.30
2018-07-09T08:06:19.268Z,62.20
2018-07-09T08:08:49.526Z,62.60
2018-07-09T08:11:47.691Z,63.00
2018-07-09T08:14:09.867Z,62.90
2018-07-09T08:16:39.372Z,62.30
2018-07-09T08:19:09.679Z,61.70
2018-07-09T08:21:39.433Z,61.40
2018-07-09T08:24:08.989Z,62.10
2018-07-09T08:26:43.694Z,62.00
2018-07-09T09:44:57.474Z,62.20
2018-07-09T09:47:28.230Z,58.90
2018-07-09T09:49:59.959Z,57.10
2018-07-09T09:52:50.372Z,57.00
2018-07-09T09:55:57.084Z,56.80
2018-07-09T09:58:26.989Z,56.00
2018-07-09T10:00:57.050Z,56.30
2018-07-09T10:03:27.760Z,55.50
2018-07-09T10:05:57.415Z,55.80
2018-07-09T10:08:36.140Z,56.20
2018-07-09T10:11:06.673Z,56.30
2018-07-09T10:13:39.193Z,56.00
2018-07-09T10:16:09.259Z,56.50
2018-07-09T10:18:39.879Z,55.40
2018-07-09T10:21:11.999Z,54.90
2018-07-09T10:23:48.836Z,56.40
2018-07-09T10:26:19.657Z,56.50
2018-07-09T10:28:53.761Z,56.00
2018-07-09T10:31:31.417Z,55.50
2018-07-09T10:34:01.284Z,55.30
2018-07-09T10:36:32.709Z,55.20
2018-07-09T10:39:20.472Z,54.40
2018-07-09T10:41:55.947Z,55.30
2018-07-09T10:44:25.896Z,55.80
2018-07-09T10:46:56.771Z,55.60
2018-07-09T10:49:26.360Z,54.90
2018-07-09T10:51:56.242Z,55.80
2018-07-09T10:54:26.278Z,55.20
2018-07-09T10:56:55.826Z,54.40
2018-07-09T10:59:35.146Z,54.40
2018-07-09T11:02:11.117Z,53.70
2018-07-09T11:04:40.730Z,53.60
2018-07-09T11:07:10.747Z,52.80
2018-07-09T11:09:40.645Z,54.40
2018-07-09T11:12:16.103Z,53.90
2018-07-09T11:14:46.249Z,52.20
2018-07-09T11:17:19.448Z,52.80
2018-07-09T11:19:58.397Z,51.80
2018-07-09T11:22:28.660Z,52.70
2018-07-09T11:24:58.783Z,52.60
2018-07-09T11:27:34.373Z,52.40
2018-07-09T11:30:09.435Z,52.40
2018-07-09T11:32:39.055Z,53.20
2018-07-09T11:35:15.978Z,53.00
2018-07-09T11:37:45.895Z,53.40
2018-07-09T11:40:25.577Z,53.70
2018-07-09T11:42:57.731Z,53.70
2018-07-09T11:45:44.525Z,53.10
2018-07-09T11:48:14.798Z,52.30
2018-07-09T11:50:54.179Z,53.40
2018-07-09T11:53:28.150Z,53.20
2018-07-09T11:56:00.126Z,53.70
2018-07-09T11:58:29.775Z,53.20
2018-07-09T12:01:01.208Z,53.70
2018-07-09T12:03:32.704Z,52.90
2018-07-09T12:06:02.560Z,53.40
2018-07-09T12:08:37.241Z,54.70
2018-07-09T12:11:12.970Z,53.70
2018-07-09T12:13:43.036Z,53.70
2018-07-09T12:16:16.950Z,53.60
2018-07-09T12:18:48.046Z,54.60
2018-07-09T12:21:22.858Z,54.00
2018-07-09T12:23:59.792Z,55.00
2018-07-09T12:26:36.199Z,54.40
2018-07-09T12:29:06.893Z,54.50
2018-07-09T12:31:46.494Z,54.70
2018-07-09T12:34:17.031Z,54.00
2018-07-09T12:36:56.698Z,54.00
2018-07-09T12:39:29.970Z,54.40
2018-07-09T12:42:00.313Z,55.20
2018-07-09T12:44:30.498Z,55.20
2018-07-09T12:47:07.957Z,55.60
2018-07-09T12:49:37.785Z,55.50
2018-07-09T12:52:13.269Z,55.20
2018-07-09T12:54:48.833Z,54.10
2018-07-09T12:57:19.162Z,55.10
2018-07-09T12:59:48.971Z,54.60
2018-07-09T13:02:18.733Z,54.80
2018-07-09T13:04:57.211Z,54.40
2018-07-09T13:07:38.232Z,53.80
2018-07-09T13:10:08.747Z,53.20
2018-07-09T13:12:38.982Z,53.50
2018-07-09T13:17:38.806Z,52.80
2018-07-09T13:20:08.626Z,52.70
2018-07-09T13:22:54.539Z,53.60
2018-07-09T13:25:24.942Z,53.30
2018-07-09T13:28:04.683Z,52.60
2018-07-09T13:30:36.125Z,52.50
2018-07-09T13:35:41.221Z,53.00
2018-07-09T13:38:10.966Z,52.70
2018-07-09T13:40:41.378Z,53.70
2018-07-09T13:43:11.501Z,52.90
2018-07-09T13:45:43.652Z,53.00
2018-07-09T13:48:14.281Z,53.20
2018-07-09T13:50:48.545Z,53.80
2018-07-09T13:53:20.292Z,53.60
2018-07-09T13:58:30.298Z,54.00
2018-07-09T14:01:00.294Z,53.70
2018-07-09T14:03:34.376Z,52.10
2018-07-09T14:06:04.370Z,52.90
2018-07-09T14:08:34.726Z,52.80
2018-07-09T14:11:11.949Z,52.80
2018-07-09T14:13:47.194Z,52.60
2018-07-09T14:16:17.735Z,53.10
2018-07-09T14:21:56.389Z,53.20
2018-07-09T14:24:28.851Z,53.40
2018-07-09T14:26:58.461Z,53.60
2018-07-09T14:29:28.799Z,53.60
2018-07-09T14:31:58.404Z,52.40
2018-07-09T14:34:28.767Z,53.10
2018-07-09T14:36:58.788Z,52.60
2018-07-09T14:39:38.014Z,52.70
2018-07-09T14:42:18.199Z,53.10
2018-07-09T14:44:57.715Z,52.30
2018-07-09T14:47:29.573Z,52.10
2018-07-09T14:50:01.028Z,52.10
2018-07-09T14:52:31.159Z,52.00
2018-07-09T14:55:01.269Z,52.20
2018-07-09T14:57:33.226Z,52.30
2018-07-09T15:00:03.081Z,52.80
2018-07-09T15:02:37.452Z,53.20
2018-07-09T15:05:16.194Z,53.40
2018-07-09T15:07:46.458Z,53.80
2018-07-09T15:10:23.028Z,53.90
2018-07-09T15:12:58.246Z,54.80
2018-07-09T15:15:29.266Z,55.20
2018-07-09T15:17:58.915Z,55.00
2018-07-09T15:20:28.613Z,55.00
2018-07-09T15:22:59.799Z,54.80
2018-07-09T15:25:29.396Z,55.00
2018-07-09T15:27:59.404Z,54.80
2018-07-09T15:30:29.503Z,55.50
2018-07-09T15:32:59.007Z,55.20
2018-07-09T15:35:28.531Z,55.40
2018-07-09T15:37:58.747Z,55.00
2018-07-09T15:40:28.368Z,55.30
2018-07-09T15:43:07.696Z,55.50
2018-07-09T15:45:54.236Z,54.50
2018-07-09T15:48:24.319Z,53.90
2018-07-09T15:50:54.388Z,55.10
2018-07-09T15:53:32.938Z,54.80
2018-07-09T15:56:09.981Z,54.80
2018-07-09T15:58:40.371Z,55.20
2018-07-09T16:01:10.941Z,55.00
2018-07-09T16:03:40.746Z,55.40
2018-07-09T16:06:11.544Z,54.70
2018-07-09T16:08:42.742Z,54.90
2018-07-09T16:11:22.886Z,54.70
2018-07-09T16:13:53.418Z,55.10
2018-07-09T16:16:23.493Z,54.80
2018-07-09T16:18:53.288Z,55.60
2018-07-09T16:21:28.835Z,53.90
2018-07-09T16:24:14.676Z,54.80
2018-07-09T16:26:44.621Z,54.90
2018-07-09T16:29:14.607Z,54.70
2018-07-09T16:31:49.594Z,54.90
2018-07-09T16:34:19.504Z,54.20
2018-07-09T16:36:49.879Z,54.70
2018-07-09T16:39:23.625Z,54.40
2018-07-09T16:41:54.790Z,54.70
2018-07-09T16:44:45.750Z,55.50
2018-07-09T16:47:21.732Z,54.80
2018-07-09T16:49:52.092Z,55.00
2018-07-09T16:52:22.307Z,55.20
2018-07-09T16:54:53.057Z,55.90
2018-07-09T16:57:23.773Z,55.60
2018-07-09T16:59:53.495Z,56.30
2018-07-09T17:02:23.339Z,56.20
2018-07-09T17:04:55.306Z,56.00
2018-07-09T17:07:24.919Z,56.00
2018-07-09T17:09:54.586Z,55.90
2018-07-09T17:12:31.202Z,56.90
2018-07-09T17:15:06.326Z,56.20
2018-07-09T17:17:35.850Z,56.70
2018-07-09T17:20:06.063Z,56.60
2018-07-09T17:22:44.871Z,57.00
2018-07-09T17:25:15.038Z,57.00
2018-07-09T17:27:53.638Z,57.50
2018-07-09T17:30:23.545Z,57.60
2018-07-09T17:32:53.796Z,57.80
2018-07-09T17:35:23.648Z,58.00
2018-07-09T17:37:54.612Z,58.10
2018-07-09T17:40:24.425Z,58.30
2018-07-09T17:42:55.724Z,58.60
2018-07-09T17:45:26.772Z,59.40
2018-07-09T17:47:58.843Z,59.20
2018-07-09T17:50:48.183Z,59.10
2018-07-09T17:53:18.117Z,59.50
2018-07-09T17:55:49.301Z,59.20
2018-07-09T17:58:24.559Z,59.50
2018-07-09T18:00:54.755Z,59.10
2018-07-09T18:03:25.208Z,59.30
2018-07-09T18:05:56.615Z,59.40
2018-07-09T18:08:35.694Z,59.80
2018-07-09T18:11:06.214Z,59.90
2018-07-09T18:13:39.130Z,60.00
2018-07-09T18:16:08.967Z,60.50
2018-07-09T18:18:50.590Z,60.20
2018-07-09T18:21:29.533Z,60.40
2018-07-09T18:24:01.379Z,60.40
2018-07-09T18:26:31.803Z,60.50
2018-07-09T18:29:01.818Z,60.70
2018-07-09T18:31:32.530Z,60.90
2018-07-09T18:34:03.936Z,60.60
2018-07-09T18:36:41.854Z,61.20
2018-07-09T18:39:21.693Z,61.50
2018-07-09T18:41:51.589Z,62.10
2018-07-09T18:44:27.412Z,62.10
2018-07-09T18:47:01.921Z,62.20
2018-07-09T18:49:32.023Z,62.30
2018-07-09T18:52:07.409Z,62.40
2018-07-09T18:54:43.170Z,62.40
2018-07-09T18:57:19.383Z,62.00
2018-07-09T18:59:49.696Z,62.20
2018-07-09T19:02:33.198Z,62.30
2018-07-09T19:05:04.723Z,62.70
2018-07-09T19:07:35.237Z,62.70
2018-07-09T19:10:06.051Z,63.10
2018-07-09T19:12:37.637Z,63.30
2018-07-09T19:15:09.344Z,63.30
2018-07-09T19:18:04.664Z,63.60
2018-07-09T19:20:44.946Z,63.60
2018-07-09T19:23:13.446Z,63.70
2018-07-09T19:25:41.438Z,63.50
2018-07-09T19:28:09.461Z,63.60
2018-07-09T19:30:39.118Z,63.90
2018-07-09T19:33:08.007Z,63.80
2018-07-09T19:35:40.237Z,63.90
2018-07-09T19:38:11.672Z,63.80
2018-07-09T19:40:39.784Z,64.30
2018-07-09T19:43:07.826Z,64.30
2018-07-09T19:45:36.565Z,64.20
2018-07-09T19:48:05.811Z,64.80
2018-07-09T19:50:34.686Z,65.00
2018-07-09T19:53:03.114Z,65.40
2018-07-09T19:55:31.593Z,65.90
2018-07-09T19:57:59.631Z,66.00
2018-07-09T20:00:27.962Z,65.90
2018-07-09T20:02:57.153Z,66.10
2018-07-09T20:05:25.162Z,66.70
2018-07-09T20:07:53.491Z,67.10
2018-07-09T20:10:26.374Z,67.30
2018-07-09T20:13:10.496Z,67.80
2018-07-09T20:15:43.931Z,68.10
2018-07-09T20:18:20.868Z,68.60
2018-07-09T20:20:49.204Z,69.00
2018-07-09T20:23:17.193Z,69.30
2018-07-09T20:25:45.190Z,69.70
2018-07-09T20:28:15.383Z,70.00
2018-07-09T20:30:43.392Z,70.30
2018-07-09T20:33:20.145Z,70.60
2018-07-09T20:35:48.742Z,70.80
2018-07-09T20:38:18.525Z,70.50
2018-07-09T20:40:46.555Z,70.00
2018-07-09T20:43:22.879Z,69.60
2018-07-09T20:45:55.839Z,69.20
2018-07-09T20:48:32.478Z,69.10
2018-07-09T20:51:01.452Z,69.70
2018-07-09T20:53:29.926Z,70.00
2018-07-09T20:55:58.757Z,70.50
2018-07-09T20:58:29.406Z,70.80
2018-07-09T21:03:35.163Z,71.30
2018-07-09T21:06:03.540Z,71.30
2018-07-09T21:08:32.094Z,71.60
2018-07-09T21:11:01.787Z,71.40
2018-07-09T21:13:34.768Z,72.00
2018-07-09T21:18:40.945Z,72.70
2018-07-09T21:21:12.282Z,72.80
2018-07-09T21:23:46.001Z,72.70
2018-07-09T21:26:20.956Z,72.70
2018-07-09T21:28:56.618Z,72.80
2018-07-09T21:31:24.718Z,73.00
2018-07-09T21:33:54.818Z,73.00
2018-07-09T21:36:30.166Z,73.20
2018-07-09T21:38:59.733Z,73.50
2018-07-09T21:41:35.099Z,73.50
2018-07-09T21:44:04.688Z,73.50
2018-07-09T21:49:17.426Z,74.00
2018-07-09T21:51:45.746Z,74.30
2018-07-09T21:54:15.925Z,74.00
2018-07-09T21:56:44.744Z,74.20
2018-07-09T21:59:26.508Z,74.40
2018-07-09T22:01:56.304Z,74.60
2018-07-09T22:04:24.834Z,75.00
2018-07-09T22:06:54.120Z,75.30
2018-07-09T22:12:12.154Z,75.40
2018-07-09T22:14:42.221Z,75.30
2018-07-09T22:17:10.130Z,75.50
2018-07-09T22:19:38.111Z,75.50
2018-07-09T22:22:07.544Z,75.30
2018-07-09T22:24:35.747Z,75.40
2018-07-09T22:27:03.773Z,75.70
2018-07-09T22:29:32.222Z,75.90
2018-07-09T22:34:56.167Z,76.50
2018-07-09T22:37:26.445Z,76.50
2018-07-09T22:40:08.901Z,77.00
2018-07-09T22:42:38.949Z,77.00
2018-07-09T22:45:18.202Z,77.30
2018-07-09T22:47:51.446Z,77.60
2018-07-09T22:50:21.516Z,77.50
2018-07-09T22:52:51.705Z,78.00
2018-07-09T22:55:31.855Z,77.90
2018-07-09T22:58:03.546Z,77.30
2018-07-09T23:00:38.388Z,77.30
2018-07-09T23:03:16.558Z,77.10
2018-07-09T23:05:46.817Z,76.80
2018-07-09T23:08:18.707Z,76.90
2018-07-09T23:11:07.250Z,75.70
2018-07-09T23:13:51.961Z,75.80
2018-07-09T23:16:56.879Z,75.80
2018-07-09T23:21:46.599Z,76.00
2018-07-09T23:24:15.152Z,75.90
2018-07-09T23:26:49.490Z,75.40
2018-07-09T23:29:17.602Z,75.70
2018-07-09T23:31:56.294Z,75.60
2018-07-09T23:34:33.720Z,74.90
2018-07-09T23:37:02.023Z,74.90
2018-07-09T23:39:29.969Z,74.80
2018-07-09T23:42:03.488Z,74.90
2018-07-09T23:44:32.024Z,75.00
2018-07-09T23:47:04.166Z,74.90
2018-07-09T23:49:43.248Z,75.50
2018-07-09T23:52:11.574Z,75.00
2018-07-09T23:54:47.329Z,74.90
2018-07-09T23:57:31.516Z,74.60
